createdAt,value
2023-05-21T00:01:55.100Z,23.08
2023-05-21T00:04:23.972Z,23.17
2023-05-21T00:06:53.518Z,23.37
2023-05-21T00:09:22.335Z,23.38
2023-05-21T00:11:50.897Z,23.14
2023-05-21T00:14:19.734Z,23.10
2023-05-21T00:16:48.445Z,23.02
2023-05-21T00:19:17.162Z,23.00
2023-05-21T00:21:47.284Z,23.00
2023-05-21T00:24:15.826Z,23.17
2023-05-21T00:26:44.345Z,23.01
2023-05-21T00:29:12.904Z,22.85
2023-05-21T00:31:41.484Z,22.80
2023-05-21T00:34:10.049Z,22.78
2023-05-21T00:36:38.634Z,22.84
2023-05-21T00:39:07.205Z,22.81
2023-05-21T00:41:36.634Z,22.67
2023-05-21T00:44:05.302Z,22.55
2023-05-21T00:46:34.218Z,22.64
2023-05-21T00:49:03.538Z,22.69
2023-05-21T00:51:32.022Z,22.67
2023-05-21T00:54:00.840Z,22.66
2023-05-21T00:56:29.804Z,22.62
2023-05-21T00:58:59.466Z,22.56
2023-05-21T01:01:28.154Z,22.57
2023-05-21T01:03:59.103Z,22.59
2023-05-21T01:06:27.933Z,22.62
2023-05-21T01:08:57.636Z,22.63
2023-05-21T01:11:43.054Z,22.56
2023-05-21T01:14:14.021Z,22.52
2023-05-21T01:16:45.403Z,22.51
2023-05-21T01:19:26.115Z,22.40
2023-05-21T01:22:02.028Z,22.37
2023-05-21T01:24:30.398Z,22.42
2023-05-21T01:27:00.078Z,22.33
2023-05-21T01:29:29.064Z,22.22
2023-05-21T01:32:24.458Z,22.12
2023-05-21T01:35:03.877Z,21.96
2023-05-21T01:37:57.037Z,21.91
2023-05-21T01:40:59.815Z,22.04
2023-05-21T01:43:31.031Z,21.83
2023-05-21T01:46:01.722Z,21.75
2023-05-21T01:48:32.092Z,21.74
2023-05-21T01:51:05.127Z,21.56
2023-05-21T01:53:33.929Z,21.41
2023-05-21T01:56:04.069Z,21.33
2023-05-21T01:58:32.647Z,21.23
2023-05-21T02:01:01.208Z,21.19
2023-05-21T02:03:32.270Z,21.06
2023-05-21T02:06:01.197Z,20.96
2023-05-21T02:08:30.546Z,20.89
2023-05-21T02:10:59.085Z,20.77
2023-05-21T02:13:27.735Z,20.72
2023-05-21T02:15:57.478Z,20.62
2023-05-21T02:18:27.737Z,20.57
2023-05-21T02:20:56.170Z,20.41
2023-05-21T02:23:24.684Z,20.34
2023-05-21T02:25:53.399Z,20.26
2023-05-21T02:28:22.701Z,20.22
2023-05-21T02:30:51.402Z,20.17
2023-05-21T02:33:21.191Z,20.13
2023-05-21T02:35:50.167Z,20.03
2023-05-21T02:38:20.801Z,19.95
2023-05-21T02:40:49.333Z,19.93
2023-05-21T02:43:17.980Z,19.88
2023-05-21T02:45:46.549Z,19.86
2023-05-21T02:48:15.161Z,19.80
2023-05-21T02:50:43.793Z,19.75
2023-05-21T02:53:12.167Z,19.77
2023-05-21T02:55:40.709Z,19.63
2023-05-21T02:58:09.300Z,19.56
2023-05-21T03:00:37.654Z,19.54
2023-05-21T03:03:06.453Z,19.52
2023-05-21T03:05:35.337Z,19.54
2023-05-21T03:08:04.903Z,19.51
2023-05-21T03:10:33.563Z,19.51
2023-05-21T03:13:02.569Z,19.46
2023-05-21T03:15:34.789Z,19.47
2023-05-21T03:18:03.719Z,19.50
2023-05-21T03:20:32.321Z,19.45
2023-05-21T03:23:01.727Z,19.46
2023-05-21T03:25:30.354Z,19.34
2023-05-21T03:27:59.130Z,19.23
2023-05-21T03:30:27.789Z,19.22
2023-05-21T03:32:57.704Z,19.11
2023-05-21T03:35:26.303Z,19.06
2023-05-21T03:37:54.864Z,19.15
2023-05-21T03:40:23.393Z,19.03
2023-05-21T03:42:52.160Z,19.09
2023-05-21T03:45:20.668Z,18.92
2023-05-21T03:47:50.094Z,18.87
2023-05-21T03:50:18.699Z,18.92
2023-05-21T03:52:47.350Z,18.81
2023-05-21T03:55:15.268Z,18.71
2023-05-21T03:57:44.243Z,18.70
2023-05-21T04:00:13.136Z,18.62
2023-05-21T04:02:41.668Z,18.58
2023-05-21T04:05:10.919Z,18.52
2023-05-21T04:07:39.822Z,18.52
2023-05-21T04:10:08.768Z,18.51
2023-05-21T04:12:36.689Z,18.42
2023-05-21T04:15:05.623Z,18.42
2023-05-21T04:17:34.595Z,18.29
2023-05-21T04:20:03.178Z,18.25
2023-05-21T04:22:31.742Z,18.14
2023-05-21T04:25:00.845Z,18.09
2023-05-21T04:27:29.219Z,18.06
2023-05-21T04:29:59.421Z,18.04
2023-05-21T04:32:29.794Z,17.97
2023-05-21T04:34:58.755Z,17.87
2023-05-21T04:37:27.294Z,17.84
2023-05-21T04:39:58.809Z,17.81
2023-05-21T04:42:27.633Z,17.77
2023-05-21T04:44:56.806Z,17.71
2023-05-21T04:47:25.404Z,17.72
2023-05-21T04:49:55.070Z,17.60
2023-05-21T04:52:26.365Z,17.54
2023-05-21T04:54:55.464Z,17.53
2023-05-21T04:57:25.839Z,17.58
2023-05-21T04:59:54.316Z,17.48
2023-05-21T05:02:22.807Z,17.46
2023-05-21T05:04:51.432Z,17.48
2023-05-21T05:07:20.216Z,17.37
2023-05-21T05:09:48.690Z,17.15
2023-05-21T05:12:17.280Z,17.22
2023-05-21T05:14:45.876Z,17.15
2023-05-21T05:17:17.633Z,17.10
2023-05-21T05:19:46.098Z,17.16
2023-05-21T05:22:14.645Z,17.07
2023-05-21T05:24:43.220Z,16.90
2023-05-21T05:27:11.831Z,16.90
2023-05-21T05:29:40.199Z,16.69
2023-05-21T05:32:09.335Z,16.52
2023-05-21T05:34:38.559Z,16.50
2023-05-21T05:37:07.225Z,16.50
2023-05-21T05:39:35.618Z,16.42
2023-05-21T05:42:04.760Z,16.43
2023-05-21T05:44:33.302Z,16.40
2023-05-21T05:47:02.051Z,16.37
2023-05-21T05:49:30.671Z,16.44
2023-05-21T05:51:59.253Z,16.38
2023-05-21T05:54:27.758Z,16.52
2023-05-21T05:56:56.311Z,16.57
2023-05-21T05:59:24.879Z,16.50
2023-05-21T06:01:53.362Z,16.39
2023-05-21T06:04:21.926Z,16.34
2023-05-21T06:06:50.730Z,16.39
2023-05-21T06:09:19.529Z,16.45
2023-05-21T06:11:48.188Z,16.42
2023-05-21T06:14:16.768Z,16.45
2023-05-21T06:16:44.665Z,16.38
2023-05-21T06:19:13.450Z,16.18
2023-05-21T06:21:42.278Z,15.84
2023-05-21T06:24:10.667Z,15.67
2023-05-21T06:26:39.291Z,15.50
2023-05-21T06:29:07.528Z,15.56
2023-05-21T06:31:36.377Z,15.39
2023-05-21T06:34:05.515Z,14.96
2023-05-21T06:36:34.220Z,14.95
2023-05-21T06:39:02.877Z,15.17
2023-05-21T06:41:31.496Z,15.22
2023-05-21T06:44:00.036Z,15.30
2023-05-21T06:46:28.718Z,15.26
2023-05-21T06:48:57.358Z,15.06
2023-05-21T06:51:25.852Z,15.08
2023-05-21T06:53:54.506Z,15.29
2023-05-21T06:56:23.324Z,15.27
2023-05-21T06:58:52.093Z,15.19
2023-05-21T07:01:21.012Z,15.19
2023-05-21T07:03:50.172Z,15.22
2023-05-21T07:06:19.513Z,15.32
2023-05-21T07:08:49.416Z,15.35
2023-05-21T07:11:18.019Z,15.40
2023-05-21T07:13:46.747Z,15.30
2023-05-21T07:16:15.368Z,15.14
2023-05-21T07:18:43.964Z,15.05
2023-05-21T07:21:12.656Z,15.07
2023-05-21T07:23:41.534Z,15.11
2023-05-21T07:26:11.876Z,15.14
2023-05-21T07:28:39.871Z,15.06
2023-05-21T07:31:09.563Z,15.16
2023-05-21T07:33:37.937Z,15.23
2023-05-21T07:36:07.033Z,15.30
2023-05-21T07:38:36.009Z,15.39
2023-05-21T07:41:04.517Z,15.43
2023-05-21T07:43:33.558Z,15.41
2023-05-21T07:46:02.188Z,15.46
2023-05-21T07:48:31.419Z,15.51
2023-05-21T07:51:01.388Z,15.54
2023-05-21T07:53:33.607Z,15.50
2023-05-21T07:56:02.305Z,15.54
2023-05-21T07:58:32.326Z,15.48
2023-05-21T08:01:00.905Z,15.49
2023-05-21T08:03:32.248Z,15.47
2023-05-21T08:06:01.433Z,15.47
2023-05-21T08:08:30.210Z,15.45
2023-05-21T08:10:58.982Z,15.44
2023-05-21T08:13:27.632Z,15.34
2023-05-21T08:15:56.192Z,15.32
2023-05-21T08:18:25.003Z,15.18
2023-05-21T08:20:53.696Z,15.08
2023-05-21T08:23:21.807Z,15.00
2023-05-21T08:25:50.400Z,15.00
2023-05-21T08:28:19.065Z,14.75
2023-05-21T08:30:47.090Z,14.67
2023-05-21T08:33:16.234Z,14.73
2023-05-21T08:35:44.803Z,14.57
2023-05-21T08:38:13.435Z,14.56
2023-05-21T08:40:42.767Z,14.74
2023-05-21T08:43:15.897Z,14.82
2023-05-21T08:45:49.174Z,14.46
2023-05-21T08:48:18.267Z,14.54
2023-05-21T08:50:47.795Z,14.93
2023-05-21T08:53:27.326Z,14.83
2023-05-21T08:55:58.602Z,14.80
2023-05-21T08:58:27.311Z,14.71
2023-05-21T09:00:57.638Z,14.61
2023-05-21T09:03:26.439Z,14.68
2023-05-21T09:05:56.506Z,14.91
2023-05-21T09:08:36.630Z,14.91
2023-05-21T09:11:05.238Z,14.81
2023-05-21T09:13:36.259Z,14.72
2023-05-21T09:16:06.852Z,14.67
2023-05-21T09:18:35.474Z,14.76
2023-05-21T09:21:32.720Z,14.58
2023-05-21T09:24:03.302Z,14.32
2023-05-21T09:26:31.939Z,14.26
2023-05-21T09:29:02.172Z,14.31
2023-05-21T09:31:31.695Z,14.30
2023-05-21T09:34:00.255Z,14.32
2023-05-21T09:36:30.635Z,14.18
2023-05-21T09:39:01.203Z,14.02
2023-05-21T09:41:36.597Z,14.08
2023-05-21T09:44:05.721Z,14.02
2023-05-21T09:46:42.656Z,13.98
2023-05-21T09:49:28.093Z,13.99
2023-05-21T09:51:58.473Z,14.12
2023-05-21T09:54:32.722Z,13.66
2023-05-21T09:57:04.258Z,13.60
2023-05-21T09:59:42.373Z,13.69
2023-05-21T10:02:31.305Z,14.01
2023-05-21T10:05:00.251Z,14.17
2023-05-21T10:07:29.756Z,14.31
2023-05-21T10:09:59.422Z,14.38
2023-05-21T10:12:32.197Z,14.34
2023-05-21T10:15:04.832Z,14.32
2023-05-21T10:17:34.076Z,14.39
2023-05-21T10:20:04.336Z,14.21
2023-05-21T10:22:33.119Z,14.09
2023-05-21T10:25:04.948Z,13.81
2023-05-21T10:27:34.832Z,14.07
2023-05-21T10:30:05.765Z,14.11
2023-05-21T10:32:35.107Z,13.92
2023-05-21T10:35:03.850Z,13.92
2023-05-21T10:37:32.534Z,13.82
2023-05-21T10:40:01.037Z,13.77
2023-05-21T10:42:32.608Z,13.69
2023-05-21T10:45:25.845Z,13.50
2023-05-21T10:48:13.746Z,13.37
2023-05-21T10:51:13.373Z,13.46
2023-05-21T10:53:55.668Z,13.39
2023-05-21T10:56:31.172Z,13.30
2023-05-21T10:59:32.832Z,13.13
2023-05-21T11:02:03.002Z,13.12
2023-05-21T11:04:31.126Z,13.15
2023-05-21T11:07:03.803Z,13.10
2023-05-21T11:09:32.246Z,13.15
2023-05-21T11:12:02.167Z,13.14
2023-05-21T11:14:39.652Z,13.03
2023-05-21T11:17:15.394Z,12.95
2023-05-21T11:19:52.150Z,12.95
2023-05-21T11:22:28.800Z,12.87
2023-05-21T11:25:02.430Z,12.92
2023-05-21T11:27:43.311Z,13.08
2023-05-21T11:30:17.051Z,13.09
2023-05-21T11:33:12.490Z,13.08
2023-05-21T11:36:01.534Z,12.87
2023-05-21T11:38:31.759Z,12.87
2023-05-21T11:41:05.439Z,12.67
2023-05-21T11:43:34.092Z,12.59
2023-05-21T11:46:02.994Z,12.64
2023-05-21T11:48:33.638Z,12.59
2023-05-21T11:51:03.527Z,12.46
2023-05-21T11:53:32.224Z,12.43
2023-05-21T11:56:03.582Z,12.34
2023-05-21T11:58:32.911Z,12.31
2023-05-21T12:01:01.466Z,12.33
2023-05-21T12:03:31.675Z,12.19
2023-05-21T12:06:07.972Z,12.16
2023-05-21T12:08:37.210Z,12.21
2023-05-21T12:11:05.937Z,12.18
2023-05-21T12:13:34.620Z,12.11
2023-05-21T12:16:06.676Z,12.17
2023-05-21T12:18:35.603Z,12.15
2023-05-21T12:21:04.178Z,12.13
2023-05-21T12:23:33.160Z,12.11
2023-05-21T12:26:01.733Z,12.16
2023-05-21T12:28:30.601Z,12.21
2023-05-21T12:30:59.225Z,12.20
2023-05-21T12:33:37.538Z,12.35
2023-05-21T12:36:06.712Z,12.45
2023-05-21T12:38:35.412Z,12.56
2023-05-21T12:41:07.851Z,12.62
2023-05-21T12:43:36.521Z,12.76
2023-05-21T12:46:05.166Z,12.86
2023-05-21T12:48:33.589Z,12.91
2023-05-21T12:51:02.141Z,13.02
2023-05-21T12:53:39.484Z,13.08
2023-05-21T12:56:15.424Z,13.13
2023-05-21T12:58:44.704Z,13.28
2023-05-21T13:01:13.969Z,13.35
2023-05-21T13:03:45.666Z,13.56
2023-05-21T13:06:15.515Z,13.71
2023-05-21T13:08:43.985Z,13.79
2023-05-21T13:11:12.523Z,13.83
2023-05-21T13:13:41.118Z,13.86
2023-05-21T13:16:09.765Z,13.82
2023-05-21T13:18:38.307Z,13.94
2023-05-21T13:21:07.179Z,13.95
2023-05-21T13:23:35.668Z,13.86
2023-05-21T13:26:04.178Z,13.95
2023-05-21T13:28:32.849Z,13.98
2023-05-21T13:31:01.364Z,13.98
2023-05-21T13:33:30.002Z,14.03
2023-05-21T13:35:58.624Z,14.11
2023-05-21T13:38:27.261Z,14.22
2023-05-21T13:40:55.828Z,14.16
2023-05-21T13:43:24.422Z,14.41
2023-05-21T13:45:53.222Z,14.36
2023-05-21T13:48:21.907Z,14.43
2023-05-21T13:50:50.390Z,14.47
2023-05-21T13:53:18.904Z,14.39
2023-05-21T13:55:47.468Z,14.44
2023-05-21T13:58:15.860Z,14.64
2023-05-21T14:00:44.464Z,14.70
2023-05-21T14:03:13.517Z,14.70
2023-05-21T14:05:42.620Z,14.90
2023-05-21T14:08:11.198Z,14.93
2023-05-21T14:10:39.749Z,14.91
2023-05-21T14:13:18.884Z,15.13
2023-05-21T14:15:49.769Z,15.22
2023-05-21T14:18:18.396Z,15.13
2023-05-21T14:20:46.928Z,15.02
2023-05-21T14:23:15.572Z,15.13
2023-05-21T14:25:44.296Z,15.12
2023-05-21T14:28:12.878Z,15.03
2023-05-21T14:30:41.486Z,15.09
2023-05-21T14:33:09.952Z,15.01
2023-05-21T14:35:38.705Z,15.14
2023-05-21T14:38:07.454Z,15.26
2023-05-21T14:40:36.149Z,15.22
2023-05-21T14:43:04.674Z,15.27
2023-05-21T14:45:36.731Z,15.27
2023-05-21T14:48:09.721Z,15.42
2023-05-21T14:50:38.593Z,15.59
2023-05-21T14:53:12.408Z,15.47
2023-05-21T14:55:41.249Z,15.72
2023-05-21T14:58:10.163Z,15.74
2023-05-21T15:00:39.583Z,15.85
2023-05-21T15:03:08.557Z,15.94
2023-05-21T15:05:37.543Z,16.35
2023-05-21T15:08:07.281Z,16.36
2023-05-21T15:10:35.902Z,16.34
2023-05-21T15:13:04.595Z,16.52
2023-05-21T15:15:33.126Z,16.60
2023-05-21T15:18:01.788Z,16.69
2023-05-21T15:20:30.461Z,16.84
2023-05-21T15:25:33.624Z,17.20
2023-05-21T15:28:02.241Z,17.09
2023-05-21T15:30:30.621Z,17.20
2023-05-21T15:32:59.165Z,17.38
2023-05-21T15:35:27.886Z,17.59
2023-05-21T15:37:56.488Z,17.74
2023-05-21T15:40:27.098Z,17.76
2023-05-21T15:42:56.051Z,18.07
2023-05-21T15:45:25.736Z,18.27
2023-05-21T15:47:54.315Z,18.45
2023-05-21T15:50:22.754Z,18.73
2023-05-21T15:52:53.352Z,18.79
2023-05-21T15:55:22.346Z,18.73
2023-05-21T15:57:50.934Z,19.07
2023-05-21T16:00:19.831Z,19.18
2023-05-21T16:02:48.688Z,19.22
2023-05-21T16:05:17.816Z,19.23
2023-05-21T16:07:46.897Z,19.52
2023-05-21T16:10:15.446Z,19.38
2023-05-21T16:12:43.458Z,19.34
2023-05-21T16:15:11.686Z,19.50
2023-05-21T16:17:39.678Z,19.61
2023-05-21T16:20:08.549Z,19.71
2023-05-21T16:22:36.515Z,19.84
2023-05-21T16:25:05.279Z,20.08
2023-05-21T16:27:33.941Z,20.22
2023-05-21T16:30:02.527Z,20.41
2023-05-21T16:32:30.943Z,20.64
2023-05-21T16:34:59.554Z,20.70
2023-05-21T16:37:28.685Z,20.74
2023-05-21T16:39:56.645Z,21.07
2023-05-21T16:42:25.264Z,21.16
2023-05-21T16:44:53.791Z,21.72
2023-05-21T16:47:22.144Z,21.91
2023-05-21T16:50:14.478Z,21.83
2023-05-21T16:52:45.265Z,22.05
2023-05-21T16:55:13.870Z,22.13
2023-05-21T16:57:42.296Z,22.09
2023-05-21T17:00:11.173Z,22.18
2023-05-21T17:02:40.285Z,22.35
2023-05-21T17:05:09.687Z,22.45
2023-05-21T17:07:41.372Z,22.64
2023-05-21T17:10:10.621Z,22.77
2023-05-21T17:12:39.173Z,22.86
2023-05-21T17:15:07.850Z,22.75
2023-05-21T17:17:36.761Z,23.10
2023-05-21T17:20:05.669Z,23.24
2023-05-21T17:22:34.242Z,23.15
2023-05-21T17:25:02.878Z,23.65
2023-05-21T17:27:31.378Z,23.55
2023-05-21T17:29:59.803Z,23.48
2023-05-21T17:32:28.392Z,23.68
2023-05-21T17:34:56.954Z,23.41
2023-05-21T17:37:25.238Z,23.88
2023-05-21T17:39:53.152Z,23.83
2023-05-21T17:42:21.190Z,23.44
2023-05-21T17:44:49.170Z,23.75
2023-05-21T17:47:17.111Z,23.57
2023-05-21T17:49:45.130Z,23.65
2023-05-21T17:52:13.499Z,23.48
2023-05-21T17:54:42.382Z,23.65
2023-05-21T17:57:10.971Z,23.84
2023-05-21T17:59:41.553Z,23.69
2023-05-21T18:02:10.575Z,23.76
2023-05-21T18:04:39.421Z,24.19
2023-05-21T18:07:08.570Z,24.04
2023-05-21T18:09:37.182Z,24.22
2023-05-21T18:12:07.033Z,24.52
2023-05-21T18:14:35.721Z,24.64
2023-05-21T18:17:06.388Z,24.50
2023-05-21T18:19:35.216Z,24.58
2023-05-21T18:22:21.730Z,24.53
2023-05-21T18:24:51.297Z,24.48
2023-05-21T18:27:19.830Z,24.75
2023-05-21T18:29:50.361Z,24.80
2023-05-21T18:32:18.914Z,24.82
2023-05-21T18:34:47.844Z,25.11
2023-05-21T18:37:16.376Z,25.00
2023-05-21T18:39:44.944Z,24.76
2023-05-21T18:42:14.351Z,24.87
2023-05-21T18:44:42.903Z,25.04
2023-05-21T18:47:11.403Z,24.82
2023-05-21T18:49:40.490Z,25.07
2023-05-21T18:52:15.114Z,25.13
2023-05-21T18:57:48.879Z,25.21
2023-05-21T19:00:30.661Z,25.13
2023-05-21T19:03:00.243Z,24.94
2023-05-21T19:05:29.608Z,24.53
2023-05-21T19:07:59.504Z,24.04
2023-05-21T19:10:28.348Z,24.43
2023-05-21T19:12:56.906Z,24.39
2023-05-21T19:15:25.496Z,24.45
2023-05-21T19:17:54.058Z,24.71
2023-05-21T19:20:27.860Z,24.43
2023-05-21T19:22:56.730Z,24.76
2023-05-21T19:25:25.534Z,24.88
2023-05-21T19:27:54.205Z,24.94
2023-05-21T19:30:22.730Z,25.06
2023-05-21T19:32:51.413Z,25.19
2023-05-21T19:35:20.066Z,25.27
2023-05-21T19:37:48.749Z,25.32
2023-05-21T19:40:18.906Z,25.03
2023-05-21T19:42:47.438Z,25.20
2023-05-21T19:45:16.896Z,25.22
2023-05-21T19:47:45.563Z,24.98
2023-05-21T19:50:14.271Z,25.13
2023-05-21T19:52:42.868Z,25.52
2023-05-21T19:55:11.704Z,25.54
2023-05-21T19:57:40.982Z,25.55
2023-05-21T20:00:11.582Z,25.57
2023-05-21T20:02:40.207Z,25.60
2023-05-21T20:05:10.046Z,25.72
2023-05-21T20:07:39.157Z,25.53
2023-05-21T20:10:08.764Z,25.71
2023-05-21T20:12:37.879Z,25.57
2023-05-21T20:15:07.960Z,25.55
2023-05-21T20:17:37.285Z,25.58
2023-05-21T20:20:12.364Z,25.59
2023-05-21T20:22:40.700Z,25.74
2023-05-21T20:25:10.109Z,25.71
2023-05-21T20:27:40.343Z,25.98
2023-05-21T20:30:12.023Z,25.69
2023-05-21T20:32:40.713Z,25.87
2023-05-21T20:35:12.729Z,25.81
2023-05-21T20:37:41.302Z,25.79
2023-05-21T20:40:12.158Z,25.83
2023-05-21T20:42:42.966Z,26.05
2023-05-21T20:45:14.106Z,26.03
2023-05-21T20:47:43.858Z,26.05
2023-05-21T20:50:13.368Z,26.11
2023-05-21T20:52:42.361Z,26.02
2023-05-21T20:55:14.049Z,26.05
2023-05-21T20:57:42.768Z,25.98
2023-05-21T21:00:14.791Z,26.01
2023-05-21T21:02:43.249Z,26.15
2023-05-21T21:05:12.136Z,26.34
2023-05-21T21:07:41.322Z,26.32
2023-05-21T21:10:10.403Z,26.25
2023-05-21T21:12:39.180Z,26.42
2023-05-21T21:15:08.248Z,26.32
2023-05-21T21:17:36.917Z,26.41
2023-05-21T21:20:07.562Z,26.36
2023-05-21T21:22:36.051Z,26.26
2023-05-21T21:25:04.656Z,26.04
2023-05-21T21:27:33.275Z,26.20
2023-05-21T21:30:01.821Z,25.91
2023-05-21T21:32:30.416Z,26.08
2023-05-21T21:34:58.975Z,26.22
2023-05-21T21:37:28.351Z,26.25
2023-05-21T21:39:58.005Z,26.23
2023-05-21T21:42:26.582Z,26.36
2023-05-21T21:44:55.036Z,26.45
2023-05-21T21:47:23.730Z,26.52
2023-05-21T21:49:52.188Z,26.56
2023-05-21T21:52:21.937Z,26.45
2023-05-21T21:54:50.515Z,26.61
2023-05-21T21:57:19.111Z,26.59
2023-05-21T21:59:47.599Z,26.65
2023-05-21T22:02:16.274Z,26.52
2023-05-21T22:04:46.360Z,26.71
2023-05-21T22:07:18.300Z,26.61
2023-05-21T22:09:47.358Z,26.87
2023-05-21T22:12:16.018Z,26.84
2023-05-21T22:14:45.031Z,26.96
2023-05-21T22:17:13.633Z,26.87
2023-05-21T22:19:41.639Z,26.96
2023-05-21T22:22:11.240Z,27.13
2023-05-21T22:24:39.984Z,26.97
2023-05-21T22:27:08.800Z,27.15
2023-05-21T22:29:37.567Z,27.17
2023-05-21T22:32:06.422Z,27.03
2023-05-21T22:34:34.869Z,27.26
2023-05-21T22:37:03.455Z,27.37
2023-05-21T22:39:32.122Z,27.45
2023-05-21T22:42:01.038Z,27.49
2023-05-21T22:44:29.797Z,27.28
2023-05-21T22:47:01.530Z,27.43
2023-05-21T22:49:31.440Z,27.35
2023-05-21T22:52:06.386Z,27.17
2023-05-21T22:54:34.938Z,27.19
2023-05-21T22:57:03.850Z,27.23
2023-05-21T22:59:34.552Z,27.30
2023-05-21T23:02:03.345Z,27.33
2023-05-21T23:04:43.855Z,27.47
2023-05-21T23:07:14.030Z,27.39
2023-05-21T23:09:42.685Z,27.33
2023-05-21T23:12:11.626Z,27.28
2023-05-21T23:14:40.191Z,27.32
2023-05-21T23:17:08.823Z,27.38
2023-05-21T23:19:37.759Z,27.50
2023-05-21T23:22:06.695Z,27.55
2023-05-21T23:24:37.559Z,27.57
2023-05-21T23:27:06.442Z,27.36
2023-05-21T23:29:35.063Z,27.54
2023-05-21T23:32:06.649Z,27.48
2023-05-21T23:34:35.290Z,27.42
2023-05-21T23:37:03.832Z,27.34
2023-05-21T23:39:32.390Z,27.52
2023-05-21T23:42:00.959Z,27.22
2023-05-21T23:44:29.565Z,27.27
2023-05-21T23:46:58.126Z,27.37
2023-05-21T23:49:26.526Z,27.29
2023-05-21T23:51:55.386Z,27.33
2023-05-21T23:54:23.951Z,27.14
2023-05-21T23:56:52.540Z,27.24
2023-05-21T23:59:21.203Z,27.15
